createdAt,value
2023-05-06T00:00:01.094Z,6.10
2023-05-06T00:02:29.411Z,7.23
2023-05-06T00:04:56.633Z,5.90
2023-05-06T00:07:24.052Z,5.67
2023-05-06T00:09:51.161Z,6.57
2023-05-06T00:12:18.201Z,7.83
2023-05-06T00:14:45.625Z,5.47
2023-05-06T00:17:12.704Z,7.03
2023-05-06T00:19:39.766Z,9.87
2023-05-06T00:22:06.881Z,8.40
2023-05-06T00:24:33.962Z,5.07
2023-05-06T00:27:01.751Z,5.87
2023-05-06T00:29:29.140Z,5.57
2023-05-06T00:31:56.264Z,6.13
2023-05-06T00:34:23.349Z,6.53
2023-05-06T00:36:50.764Z,6.87
2023-05-06T00:39:17.932Z,6.67
2023-05-06T00:41:45.073Z,5.90
2023-05-06T00:44:12.463Z,7.60
2023-05-06T00:46:40.047Z,6.23
2023-05-06T00:49:07.134Z,7.17
2023-05-06T00:51:34.579Z,8.07
2023-05-06T00:54:02.193Z,7.47
2023-05-06T00:56:29.414Z,7.50
2023-05-06T00:58:56.841Z,6.47
2023-05-06T01:01:24.302Z,7.87
2023-05-06T01:03:57.537Z,6.50
2023-05-06T01:06:30.425Z,6.93
2023-05-06T01:09:06.637Z,7.73
2023-05-06T01:11:42.501Z,7.63
2023-05-06T01:14:15.844Z,6.77
2023-05-06T01:16:44.296Z,8.60
2023-05-06T01:19:14.870Z,8.17
2023-05-06T01:21:42.776Z,6.83
2023-05-06T01:24:09.856Z,6.50
2023-05-06T01:26:36.902Z,7.50
2023-05-06T01:29:04.135Z,6.80
2023-05-06T01:31:35.978Z,7.67
2023-05-06T01:34:09.344Z,7.07
2023-05-06T01:36:41.719Z,8.87
2023-05-06T01:39:12.085Z,7.53
2023-05-06T01:41:41.805Z,7.83
2023-05-06T01:44:09.035Z,6.77
2023-05-06T01:46:36.625Z,9.13
2023-05-06T01:49:11.537Z,10.33
2023-05-06T01:51:39.421Z,8.73
2023-05-06T01:54:06.565Z,7.83
2023-05-06T01:56:33.641Z,7.83
2023-05-06T01:59:01.243Z,6.73
2023-05-06T02:01:28.334Z,8.07
2023-05-06T02:03:55.674Z,8.80
2023-05-06T02:06:23.203Z,8.27
2023-05-06T02:08:50.364Z,9.57
2023-05-06T02:11:17.429Z,7.63
2023-05-06T02:13:44.671Z,8.30
2023-05-06T02:16:11.778Z,7.77
2023-05-06T02:18:38.861Z,7.73
2023-05-06T02:21:06.260Z,8.07
2023-05-06T02:23:33.301Z,7.73
2023-05-06T02:26:00.582Z,7.53
2023-05-06T02:28:27.968Z,9.27
2023-05-06T02:30:58.269Z,7.93
2023-05-06T02:33:26.065Z,9.10
2023-05-06T02:35:53.462Z,9.27
2023-05-06T02:38:20.514Z,7.77
2023-05-06T02:40:47.603Z,7.37
2023-05-06T02:43:14.747Z,8.63
2023-05-06T02:45:41.827Z,6.50
2023-05-06T02:48:08.890Z,9.07
2023-05-06T02:50:36.239Z,7.37
2023-05-06T02:53:03.341Z,6.47
2023-05-06T02:55:30.562Z,8.43
2023-05-06T02:57:57.665Z,7.77
2023-05-06T03:00:24.699Z,9.17
2023-05-06T03:02:51.803Z,6.17
2023-05-06T03:05:19.335Z,7.47
2023-05-06T03:07:46.431Z,9.80
2023-05-06T03:10:13.508Z,7.67
2023-05-06T03:12:40.997Z,7.80
2023-05-06T03:15:08.423Z,8.00
2023-05-06T03:17:36.056Z,6.30
2023-05-06T03:20:04.044Z,8.23
2023-05-06T03:22:31.119Z,7.77
2023-05-06T03:24:58.172Z,7.07
2023-05-06T03:27:25.334Z,7.10
2023-05-06T03:29:52.418Z,6.50
2023-05-06T03:32:19.459Z,7.00
2023-05-06T03:34:46.532Z,8.07
2023-05-06T03:37:13.636Z,7.50
2023-05-06T03:39:40.670Z,6.57
2023-05-06T03:42:09.548Z,7.83
2023-05-06T03:44:37.029Z,6.80
2023-05-06T03:47:04.095Z,6.90
2023-05-06T03:49:31.567Z,7.87
2023-05-06T03:51:58.620Z,12.60
2023-05-06T03:54:25.656Z,7.20
2023-05-06T03:56:53.062Z,6.50
2023-05-06T03:59:20.178Z,7.57
2023-05-06T04:01:47.397Z,7.17
2023-05-06T04:04:14.871Z,6.80
2023-05-06T04:06:41.962Z,7.00
2023-05-06T04:09:09.529Z,6.50
2023-05-06T04:11:36.757Z,7.37
2023-05-06T04:14:03.803Z,7.47
2023-05-06T04:16:30.911Z,6.23
2023-05-06T04:18:58.641Z,8.00
2023-05-06T04:21:25.743Z,8.63
2023-05-06T04:23:52.880Z,7.10
2023-05-06T04:26:19.928Z,8.27
2023-05-06T04:28:46.974Z,6.93
2023-05-06T04:31:14.565Z,8.10
2023-05-06T04:33:41.958Z,7.37
2023-05-06T04:36:09.236Z,7.07
2023-05-06T04:38:37.342Z,7.37
2023-05-06T04:41:05.329Z,11.63
2023-05-06T04:43:32.770Z,6.13
2023-05-06T04:46:00.021Z,7.90
2023-05-06T04:48:27.524Z,6.50
2023-05-06T04:50:54.622Z,8.03
2023-05-06T04:53:21.723Z,6.40
2023-05-06T04:55:48.784Z,6.67
2023-05-06T04:58:15.863Z,9.13
2023-05-06T05:00:42.892Z,6.83
2023-05-06T05:03:10.427Z,6.83
2023-05-06T05:05:37.632Z,6.40
2023-05-06T05:08:04.715Z,7.10
2023-05-06T05:10:32.124Z,6.97
2023-05-06T05:12:59.183Z,7.03
2023-05-06T05:15:26.251Z,7.93
2023-05-06T05:17:53.791Z,8.07
2023-05-06T05:20:20.938Z,7.23
2023-05-06T05:22:48.069Z,8.47
2023-05-06T05:25:15.277Z,6.83
2023-05-06T05:27:43.017Z,7.87
2023-05-06T05:30:10.358Z,6.60
2023-05-06T05:32:37.588Z,7.13
2023-05-06T05:35:04.996Z,6.27
2023-05-06T05:37:32.598Z,7.53
2023-05-06T05:40:00.034Z,11.67
2023-05-06T05:42:27.808Z,6.20
2023-05-06T05:44:54.861Z,9.30
2023-05-06T05:47:22.285Z,7.20
2023-05-06T05:49:49.353Z,7.77
2023-05-06T05:52:19.205Z,9.53
2023-05-06T05:54:46.393Z,8.37
2023-05-06T05:57:13.472Z,9.07
2023-05-06T05:59:40.528Z,9.97
2023-05-06T06:02:07.629Z,12.97
2023-05-06T06:04:34.741Z,11.43
2023-05-06T06:07:01.960Z,13.60
2023-05-06T06:09:29.433Z,12.77
2023-05-06T06:11:56.711Z,15.60
2023-05-06T06:14:23.933Z,15.20
2023-05-06T06:16:51.413Z,12.13
2023-05-06T06:19:18.440Z,14.00
2023-05-06T06:21:45.536Z,12.07
2023-05-06T06:24:13.360Z,13.37
2023-05-06T06:26:40.467Z,13.43
2023-05-06T06:29:07.568Z,12.07
2023-05-06T06:31:35.038Z,11.77
2023-05-06T06:34:06.297Z,12.97
2023-05-06T06:36:33.556Z,13.17
2023-05-06T06:39:00.944Z,12.60
2023-05-06T06:41:28.424Z,11.77
2023-05-06T06:43:55.811Z,12.47
2023-05-06T06:46:23.628Z,12.00
2023-05-06T06:48:50.879Z,13.80
2023-05-06T06:51:17.967Z,11.50
2023-05-06T06:53:45.119Z,12.07
2023-05-06T06:56:12.450Z,14.90
2023-05-06T06:58:39.552Z,11.07
2023-05-06T07:01:06.968Z,11.40
2023-05-06T07:03:34.047Z,12.27
2023-05-06T07:06:01.175Z,12.60
2023-05-06T07:08:28.482Z,11.10
2023-05-06T07:10:56.433Z,11.40
2023-05-06T07:13:23.640Z,11.33
2023-05-06T07:15:50.964Z,11.33
2023-05-06T07:18:18.096Z,10.93
2023-05-06T07:20:45.187Z,9.33
2023-05-06T07:23:12.260Z,13.50
2023-05-06T07:25:39.329Z,10.23
2023-05-06T07:28:06.417Z,9.97
2023-05-06T07:30:33.696Z,13.13
2023-05-06T07:33:00.992Z,13.33
2023-05-06T07:35:28.124Z,14.03
2023-05-06T07:37:55.347Z,12.80
2023-05-06T07:40:22.468Z,15.10
2023-05-06T07:42:49.508Z,16.20
2023-05-06T07:45:17.324Z,14.73
2023-05-06T07:47:44.397Z,14.67
2023-05-06T07:50:11.564Z,13.97
2023-05-06T07:52:38.990Z,13.80
2023-05-06T07:55:06.391Z,14.87
2023-05-06T07:57:33.502Z,13.53
2023-05-06T08:00:00.954Z,16.40
2023-05-06T08:02:28.162Z,16.07
2023-05-06T08:04:55.636Z,15.03
2023-05-06T08:07:22.801Z,18.40
2023-05-06T08:09:50.084Z,15.53
2023-05-06T08:12:17.476Z,17.50
2023-05-06T08:14:44.878Z,16.80
2023-05-06T08:17:13.349Z,16.07
2023-05-06T08:19:40.432Z,16.37
2023-05-06T08:22:07.864Z,14.53
2023-05-06T08:24:34.950Z,15.17
2023-05-06T08:27:02.178Z,17.20
2023-05-06T08:29:29.975Z,16.30
2023-05-06T08:31:57.291Z,19.07
2023-05-06T08:34:24.393Z,15.53
2023-05-06T08:36:51.994Z,13.90
2023-05-06T08:39:19.069Z,17.73
2023-05-06T08:41:48.755Z,18.70
2023-05-06T08:44:20.130Z,16.83
2023-05-06T08:46:47.676Z,16.87
2023-05-06T08:49:14.738Z,16.20
2023-05-06T08:51:43.671Z,15.93
2023-05-06T08:54:11.826Z,16.87
2023-05-06T08:56:39.877Z,17.53
2023-05-06T08:59:09.664Z,17.63
2023-05-06T09:01:36.849Z,26.00
2023-05-06T09:04:04.270Z,18.87
2023-05-06T09:06:31.849Z,16.77
2023-05-06T09:08:58.955Z,16.67
2023-05-06T09:11:29.921Z,17.13
2023-05-06T09:14:16.130Z,23.53
2023-05-06T09:16:44.965Z,15.83
2023-05-06T09:19:12.422Z,19.10
2023-05-06T09:21:40.603Z,17.47
2023-05-06T09:24:08.632Z,20.17
2023-05-06T09:26:36.595Z,17.70
2023-05-06T09:29:04.467Z,19.67
2023-05-06T09:31:31.713Z,17.20
2023-05-06T09:33:59.589Z,21.13
2023-05-06T09:36:27.996Z,20.07
2023-05-06T09:38:55.675Z,15.37
2023-05-06T09:41:25.147Z,19.47
2023-05-06T09:43:53.079Z,19.50
2023-05-06T09:46:21.520Z,19.67
2023-05-06T09:48:50.379Z,18.70
2023-05-06T09:51:17.894Z,17.10
2023-05-06T09:53:45.568Z,16.60
2023-05-06T09:56:12.876Z,17.60
2023-05-06T09:58:40.560Z,20.47
2023-05-06T10:01:08.058Z,19.67
2023-05-06T10:03:36.197Z,15.93
2023-05-06T10:06:06.316Z,19.50
2023-05-06T10:08:37.484Z,15.20
2023-05-06T10:11:06.542Z,14.53
2023-05-06T10:13:37.370Z,14.77
2023-05-06T10:16:05.662Z,16.90
2023-05-06T10:18:33.435Z,17.50
2023-05-06T10:21:01.090Z,17.27
2023-05-06T10:23:44.301Z,16.13
2023-05-06T10:26:12.574Z,18.93
2023-05-06T10:28:43.275Z,16.97
2023-05-06T10:31:15.002Z,18.77
2023-05-06T10:33:43.070Z,18.70
2023-05-06T10:36:21.664Z,17.63
2023-05-06T10:39:00.670Z,21.63
2023-05-06T10:41:28.884Z,15.40
2023-05-06T10:43:56.943Z,17.50
2023-05-06T10:46:26.148Z,16.87
2023-05-06T10:48:59.613Z,19.50
2023-05-06T10:51:28.153Z,14.70
2023-05-06T10:54:07.400Z,19.27
2023-05-06T10:56:38.218Z,16.40
2023-05-06T10:59:12.671Z,16.70
2023-05-06T11:01:44.869Z,14.57
2023-05-06T11:04:14.174Z,14.10
2023-05-06T11:06:44.535Z,17.57
2023-05-06T11:09:19.044Z,15.13
2023-05-06T11:11:48.908Z,15.80
2023-05-06T11:14:25.342Z,14.23
2023-05-06T11:16:53.542Z,15.40
2023-05-06T11:19:20.639Z,14.13
2023-05-06T11:21:49.987Z,12.40
2023-05-06T11:24:23.568Z,14.53
2023-05-06T11:26:51.634Z,12.70
2023-05-06T11:29:19.120Z,13.33
2023-05-06T11:31:46.371Z,13.00
2023-05-06T11:34:14.996Z,12.50
2023-05-06T11:37:09.464Z,11.73
2023-05-06T11:39:40.862Z,11.90
2023-05-06T11:42:09.007Z,12.33
2023-05-06T11:44:37.682Z,9.57
2023-05-06T11:47:05.987Z,9.70
2023-05-06T11:49:37.648Z,9.40
2023-05-06T11:52:04.932Z,10.03
2023-05-06T11:54:34.843Z,10.03
2023-05-06T11:57:02.018Z,10.70
2023-05-06T11:59:32.095Z,8.90
2023-05-06T12:02:00.188Z,9.93
2023-05-06T12:04:27.737Z,8.37
2023-05-06T12:06:55.625Z,9.37
2023-05-06T12:09:23.184Z,7.77
2023-05-06T12:11:51.327Z,8.43
2023-05-06T12:14:18.714Z,9.07
2023-05-06T12:16:46.126Z,9.93
2023-05-06T12:19:16.119Z,14.53
2023-05-06T12:21:43.265Z,10.67
2023-05-06T12:24:10.453Z,11.33
2023-05-06T12:26:45.487Z,11.53
2023-05-06T12:29:15.546Z,13.40
2023-05-06T12:31:43.232Z,12.77
2023-05-06T12:34:10.897Z,13.47
2023-05-06T12:36:44.827Z,12.97
2023-05-06T12:39:12.457Z,11.80
2023-05-06T12:41:42.089Z,13.13
2023-05-06T12:44:28.480Z,12.63
2023-05-06T12:46:56.021Z,11.23
2023-05-06T12:49:23.079Z,13.43
2023-05-06T12:52:06.321Z,11.37
2023-05-06T12:54:33.419Z,10.70
2023-05-06T12:57:00.808Z,12.03
2023-05-06T12:59:28.301Z,10.40
2023-05-06T13:01:55.539Z,10.73
2023-05-06T13:04:23.014Z,10.40
2023-05-06T13:06:51.513Z,10.80
2023-05-06T13:09:18.883Z,10.63
2023-05-06T13:11:46.026Z,9.53
2023-05-06T13:14:13.971Z,9.93
2023-05-06T13:16:42.214Z,9.63
2023-05-06T13:19:18.165Z,12.87
2023-05-06T13:21:59.047Z,11.37
2023-05-06T13:24:26.240Z,11.23
2023-05-06T13:26:53.294Z,12.07
2023-05-06T13:29:20.825Z,11.13
2023-05-06T13:31:48.007Z,9.53
2023-05-06T13:34:15.063Z,10.37
2023-05-06T13:36:44.028Z,12.00
2023-05-06T13:39:11.162Z,13.53
2023-05-06T13:41:38.293Z,11.57
2023-05-06T13:44:06.639Z,15.07
2023-05-06T13:46:33.770Z,11.60
2023-05-06T13:49:00.966Z,11.33
2023-05-06T13:51:30.949Z,11.53
2023-05-06T13:53:58.054Z,12.40
2023-05-06T13:56:25.136Z,18.00
2023-05-06T13:58:53.520Z,15.13
2023-05-06T14:01:23.950Z,14.40
2023-05-06T14:03:51.185Z,15.00
2023-05-06T14:06:18.570Z,16.27
2023-05-06T14:08:46.078Z,15.23
2023-05-06T14:11:13.311Z,14.97
2023-05-06T14:13:41.421Z,17.53
2023-05-06T14:16:08.608Z,16.83
2023-05-06T14:18:35.811Z,13.23
2023-05-06T14:21:03.861Z,16.73
2023-05-06T14:23:32.356Z,15.07
2023-05-06T14:25:59.435Z,14.53
2023-05-06T14:28:26.850Z,15.27
2023-05-06T14:30:54.040Z,19.47
2023-05-06T14:33:23.105Z,17.50
2023-05-06T14:35:52.952Z,14.90
2023-05-06T14:38:20.020Z,17.63
2023-05-06T14:40:47.147Z,14.30
2023-05-06T14:43:14.531Z,14.70
2023-05-06T14:45:41.649Z,13.67
2023-05-06T14:48:08.836Z,16.67
2023-05-06T14:50:36.312Z,15.30
2023-05-06T14:53:04.118Z,13.90
2023-05-06T14:55:31.448Z,16.80
2023-05-06T14:57:58.827Z,14.50
2023-05-06T15:00:26.169Z,15.77
2023-05-06T15:02:53.313Z,15.63
2023-05-06T15:05:20.848Z,16.20
2023-05-06T15:07:47.975Z,17.17
2023-05-06T15:10:15.118Z,18.37
2023-05-06T15:12:42.528Z,15.70
2023-05-06T15:15:10.062Z,13.63
2023-05-06T15:17:37.586Z,15.93
2023-05-06T15:22:49.914Z,15.50
2023-05-06T15:25:30.345Z,16.57
2023-05-06T15:28:01.302Z,16.47
2023-05-06T15:30:28.389Z,16.50
2023-05-06T15:32:55.477Z,17.73
2023-05-06T15:35:22.991Z,17.30
2023-05-06T15:37:50.020Z,17.50
2023-05-06T15:40:17.198Z,19.90
2023-05-06T15:42:44.583Z,12.53
2023-05-06T15:45:12.144Z,13.93
2023-05-06T15:47:39.244Z,16.03
2023-05-06T15:50:16.485Z,13.33
2023-05-06T15:52:48.256Z,13.43
2023-05-06T15:55:15.592Z,13.50
2023-05-06T15:57:45.780Z,12.80
2023-05-06T16:00:14.952Z,13.97
2023-05-06T16:02:42.437Z,14.93
2023-05-06T16:05:10.028Z,11.73
2023-05-06T16:07:37.133Z,15.73
2023-05-06T16:10:04.566Z,15.07
2023-05-06T16:12:32.587Z,14.10
2023-05-06T16:15:00.467Z,15.73
2023-05-06T16:17:27.937Z,14.27
2023-05-06T16:19:55.059Z,15.80
2023-05-06T16:22:22.114Z,15.43
2023-05-06T16:24:49.196Z,16.73
2023-05-06T16:27:16.328Z,15.47
2023-05-06T16:29:43.398Z,14.93
2023-05-06T16:32:10.525Z,19.10
2023-05-06T16:34:40.235Z,17.43
2023-05-06T16:37:07.846Z,13.77
2023-05-06T16:39:34.943Z,16.27
2023-05-06T16:42:02.163Z,20.10
2023-05-06T16:44:29.788Z,16.37
2023-05-06T16:46:57.224Z,14.27
2023-05-06T16:49:27.666Z,19.13
2023-05-06T16:51:57.257Z,17.07
2023-05-06T16:54:25.472Z,18.93
2023-05-06T16:56:53.001Z,13.40
2023-05-06T16:59:22.137Z,15.53
2023-05-06T17:01:49.633Z,12.60
2023-05-06T17:04:16.874Z,12.87
2023-05-06T17:06:44.573Z,12.77
2023-05-06T17:09:12.099Z,16.13
2023-05-06T17:11:39.208Z,14.57
2023-05-06T17:14:06.640Z,14.40
2023-05-06T17:16:33.706Z,13.40
2023-05-06T17:19:01.082Z,17.10
2023-05-06T17:21:28.170Z,14.70
2023-05-06T17:23:55.295Z,15.87
2023-05-06T17:26:22.514Z,14.93
2023-05-06T17:28:51.040Z,15.33
2023-05-06T17:31:18.604Z,14.17
2023-05-06T17:33:45.915Z,14.67
2023-05-06T17:36:14.240Z,15.07
2023-05-06T17:38:41.294Z,15.40
2023-05-06T17:41:08.487Z,13.20
2023-05-06T17:43:35.925Z,16.07
2023-05-06T17:46:02.996Z,13.33
2023-05-06T17:48:30.263Z,13.57
2023-05-06T17:51:02.245Z,15.40
2023-05-06T17:53:29.698Z,15.63
2023-05-06T17:55:56.992Z,15.70
2023-05-06T17:58:24.410Z,15.90
2023-05-06T18:00:51.907Z,15.00
2023-05-06T18:03:19.098Z,15.13
2023-05-06T18:05:46.876Z,16.23
2023-05-06T18:08:13.955Z,17.83
2023-05-06T18:10:41.570Z,17.60
2023-05-06T18:13:09.053Z,15.17
2023-05-06T18:15:36.192Z,13.87
2023-05-06T18:18:03.330Z,17.30
2023-05-06T18:20:30.847Z,12.90
2023-05-06T18:22:59.114Z,14.00
2023-05-06T18:25:26.210Z,12.43
2023-05-06T18:27:53.573Z,11.70
2023-05-06T18:30:20.765Z,11.67
2023-05-06T18:32:50.712Z,12.33
2023-05-06T18:35:18.907Z,12.50
2023-05-06T18:37:45.937Z,12.03
2023-05-06T18:40:15.047Z,13.07
2023-05-06T18:42:42.441Z,13.07
2023-05-06T18:45:09.965Z,10.33
2023-05-06T18:47:37.960Z,9.63
2023-05-06T18:50:05.533Z,11.67
2023-05-06T18:52:32.627Z,14.23
2023-05-06T18:54:59.688Z,12.00
2023-05-06T18:57:27.213Z,11.23
2023-05-06T18:59:54.306Z,10.93
2023-05-06T19:02:21.441Z,11.03
2023-05-06T19:04:48.960Z,11.87
2023-05-06T19:07:16.374Z,10.33
2023-05-06T19:09:43.499Z,11.93
2023-05-06T19:12:10.879Z,12.70
2023-05-06T19:14:37.983Z,10.90
2023-05-06T19:17:05.371Z,12.13
2023-05-06T19:19:32.546Z,11.23
2023-05-06T19:22:01.696Z,12.37
2023-05-06T19:24:30.797Z,12.17
2023-05-06T19:26:58.174Z,14.97
2023-05-06T19:29:25.323Z,10.93
2023-05-06T19:31:52.370Z,8.57
2023-05-06T19:34:19.495Z,9.23
2023-05-06T19:36:46.685Z,9.57
2023-05-06T19:39:13.823Z,10.13
2023-05-06T19:41:40.960Z,11.03
2023-05-06T19:44:08.008Z,12.30
2023-05-06T19:46:35.311Z,8.90
2023-05-06T19:49:02.645Z,10.07
2023-05-06T19:51:29.831Z,8.87
2023-05-06T19:53:56.887Z,8.00
2023-05-06T19:56:24.198Z,8.13
2023-05-06T19:58:51.512Z,8.27
2023-05-06T20:01:22.350Z,8.10
2023-05-06T20:03:49.581Z,7.53
2023-05-06T20:06:17.071Z,8.03
2023-05-06T20:08:44.110Z,8.33
2023-05-06T20:11:11.479Z,7.60
2023-05-06T20:13:38.582Z,7.53
2023-05-06T20:16:05.770Z,8.77
2023-05-06T20:18:33.729Z,6.77
2023-05-06T20:21:00.805Z,7.80
2023-05-06T20:23:27.860Z,8.83
2023-05-06T20:25:55.320Z,10.53
2023-05-06T20:28:22.416Z,7.90
2023-05-06T20:30:49.917Z,9.57
2023-05-06T20:33:17.096Z,10.93
2023-05-06T20:35:44.197Z,11.03
2023-05-06T20:38:11.422Z,9.97
2023-05-06T20:40:38.847Z,9.47
2023-05-06T20:43:05.903Z,11.57
2023-05-06T20:45:33.043Z,9.80
2023-05-06T20:48:00.227Z,11.60
2023-05-06T20:50:29.437Z,8.97
2023-05-06T20:52:56.979Z,9.23
2023-05-06T20:55:25.454Z,8.93
2023-05-06T20:57:52.739Z,8.87
2023-05-06T21:00:19.962Z,7.43
2023-05-06T21:02:47.470Z,6.97
2023-05-06T21:05:14.801Z,7.00
2023-05-06T21:07:42.014Z,7.50
2023-05-06T21:10:09.908Z,6.97
2023-05-06T21:12:37.436Z,6.80
2023-05-06T21:15:04.776Z,6.97
2023-05-06T21:17:32.271Z,7.17
2023-05-06T21:19:59.406Z,6.50
2023-05-06T21:22:26.651Z,8.17
2023-05-06T21:24:54.073Z,7.27
2023-05-06T21:27:21.294Z,6.53
2023-05-06T21:29:48.365Z,6.43
2023-05-06T21:32:15.806Z,7.70
2023-05-06T21:34:42.954Z,6.83
2023-05-06T21:37:10.118Z,6.73
2023-05-06T21:39:37.316Z,6.73
2023-05-06T21:42:04.775Z,6.80
2023-05-06T21:44:31.812Z,7.00
2023-05-06T21:46:58.872Z,5.83
2023-05-06T21:49:25.924Z,6.40
2023-05-06T21:51:52.942Z,8.07
2023-05-06T21:54:20.375Z,7.33
2023-05-06T21:56:47.404Z,6.73
2023-05-06T21:59:14.479Z,7.00
2023-05-06T22:01:41.821Z,6.10
2023-05-06T22:04:12.710Z,5.40
2023-05-06T22:06:40.882Z,7.20
2023-05-06T22:09:09.945Z,7.37
2023-05-06T22:11:38.101Z,6.43
2023-05-06T22:14:06.368Z,6.20
2023-05-06T22:16:38.134Z,7.23
2023-05-06T22:19:05.900Z,6.67
2023-05-06T22:21:34.476Z,6.00
2023-05-06T22:24:01.966Z,6.77
2023-05-06T22:26:29.010Z,7.00
2023-05-06T22:28:56.606Z,6.03
2023-05-06T22:31:25.126Z,5.93
2023-05-06T22:33:55.172Z,7.00
2023-05-06T22:36:22.257Z,6.77
2023-05-06T22:38:49.345Z,5.50
2023-05-06T22:41:18.267Z,7.40
2023-05-06T22:43:45.364Z,6.50
2023-05-06T22:46:12.553Z,6.97
2023-05-06T22:48:40.360Z,8.37
2023-05-06T22:51:07.757Z,7.00
2023-05-06T22:53:34.858Z,7.20
2023-05-06T22:56:01.904Z,6.43
2023-05-06T22:58:29.013Z,7.20
2023-05-06T23:00:56.504Z,7.40
2023-05-06T23:03:23.711Z,7.97
2023-05-06T23:05:50.997Z,8.70
2023-05-06T23:08:18.408Z,9.73
2023-05-06T23:10:45.508Z,8.20
2023-05-06T23:13:12.656Z,9.07
2023-05-06T23:15:40.065Z,9.27
2023-05-06T23:18:07.246Z,9.70
2023-05-06T23:20:34.384Z,10.83
2023-05-06T23:23:01.903Z,10.93
2023-05-06T23:25:28.956Z,16.33
2023-05-06T23:27:56.201Z,9.03
2023-05-06T23:30:23.330Z,11.37
2023-05-06T23:32:50.470Z,11.37
2023-05-06T23:35:17.632Z,10.87
2023-05-06T23:37:44.901Z,10.87
2023-05-06T23:40:13.293Z,10.30
2023-05-06T23:42:41.385Z,10.10
2023-05-06T23:45:09.328Z,11.20
2023-05-06T23:47:36.647Z,10.73
2023-05-06T23:50:03.795Z,11.50
2023-05-06T23:52:31.813Z,11.17
2023-05-06T23:54:58.926Z,11.23
2023-05-06T23:57:26.074Z,11.53
2023-05-06T23:59:53.425Z,12.07
